Portada
METAR-TAF:

METAR-TAF

Aeropuertos :

Parque nacional Kruger, Sudáfrica

latitud: 25-23-00S, longitud: 31-06-20E, altitud: 862 m

Observación

El informe se hizo hace 47 minutos, a las 04:00 UTC
Viento 2 kt del oeste-suroeste
Temperatura 7°C
Humedad 76%
Presión 1026 hPa
Visibilidad 10 km o más
sin nubes por debajo de 1500 m y sin presencia de cumulonimbus.

METAR: FAKN 280400Z 24002KT CAVOK 07/03 Q1026 NOSIG

Hora: 06:47 (04:47 UTC)

Pronóstico

El informe se hizo hace 1 hora y 47 minutos, a las 03:00 UTC
Pronóstico válido del 28 a las 04 UTC al 28 a las 15 UTC
Viento 3 kt con dirección variable
Visibilidad 10 km o más
sin nubes por debajo de 1500 m y sin presencia de cumulonimbus.
A partir de las 28 a las 0800 UTC
Viento 5 kt del norte-noreste
Visibilidad 10 km o más
sin nubes por debajo de 1500 m y sin presencia de cumulonimbus.

TAF: FAKN 280300Z 2804/2815 VRB03KT CAVOK TX20/2812Z TN06/2804Z FM280800 03005KT CAVOK

Observaciones y pronósticos meteorológicos de más de 4000 aeropuertos (mensajes METAR y TAF).

Los puntos amarillos y rojos representan las estaciones disponibles.

Ponga el ratón en el punto deseado para ver el nombre de la estación.

Haga clic para ver las observaciones y los pronósticos meteorológicos.

Para cambiar el mapa : haga clic en los botones verdes con una cruz de color negro para hacer un zoom, en el botón verde con un guión para alejar o en las flechas verdes para mapas adyacentes.


METAR-TAF: